Time;durP1;ratioP1;P1;durP2;ratioP2;P2;SDS_P1;SDS_P2;PMS_P1;PMS_P2;Temp;Humidity;BMP_temperature;BMP_pressure;BME280_temperature;BME280_humidity;BME280_pressure;Samples;Min_cycle;Max_cycle;Signal;HPM_P1;HPM_P2
2023/05/29 00:00:07;;;;;;;23.02;3.25;;;10.80;99.90;;;;;;5075950;28;20048;-83
2023/05/29 00:02:53;;;;;;;15.40;2.30;;;10.80;99.90;;;;;;5058566;28;20040;-79
2023/05/29 00:05:40;;;;;;;17.50;3.33;;;10.80;99.90;;;;;;5071328;28;20063;-81
2023/05/29 00:08:26;;;;;;;13.93;2.97;;;10.80;99.90;;;;;;5071393;28;20053;-78
2023/05/29 00:11:13;;;;;;;17.50;2.92;;;10.80;99.90;;;;;;5053500;28;20136;-79
2023/05/29 00:14:00;;;;;;;17.05;2.97;;;10.80;99.90;;;;;;5071677;28;20167;-78
2023/05/29 00:16:46;;;;;;;13.07;2.92;;;10.80;99.90;;;;;;5071742;28;20041;-79
2023/05/29 00:19:32;;;;;;;18.15;2.72;;;10.80;99.90;;;;;;5070864;28;20055;-77
2023/05/29 00:22:19;;;;;;;21.95;4.65;;;10.80;99.90;;;;;;5071052;28;20052;-80
2023/05/29 00:25:06;;;;;;;13.35;2.85;;;10.80;99.90;;;;;;5071936;28;20080;-84
2023/05/29 00:27:52;;;;;;;18.75;3.20;;;10.80;99.90;;;;;;5072180;28;20059;-82
2023/05/29 00:30:39;;;;;;;17.17;3.03;;;10.90;99.90;;;;;;5074339;28;20048;-82
2023/05/29 00:33:25;;;;;;;16.98;3.17;;;10.80;99.90;;;;;;5071433;28;20120;-81
2023/05/29 00:36:11;;;;;;;16.55;2.83;;;10.90;99.90;;;;;;5071170;28;20056;-84
2023/05/29 00:38:58;;;;;;;17.55;2.67;;;10.90;99.90;;;;;;5041173;28;20110;-83
2023/05/29 00:41:44;;;;;;;14.93;3.50;;;10.90;99.90;;;;;;5058308;28;20048;-81
2023/05/29 00:44:30;;;;;;;14.82;4.15;;;10.90;99.90;;;;;;5072055;28;20056;-79
2023/05/29 00:47:16;;;;;;;17.20;2.92;;;10.90;99.90;;;;;;5052775;28;20066;-80
2023/05/29 00:50:03;;;;;;;14.23;3.00;;;11.00;99.90;;;;;;5056983;28;20045;-79
2023/05/29 00:52:50;;;;;;;19.02;3.28;;;11.00;99.90;;;;;;5052441;28;20070;-82
2023/05/29 00:55:37;;;;;;;21.35;3.65;;;11.10;99.90;;;;;;5072021;28;20063;-83
2023/05/29 00:58:23;;;;;;;18.88;3.22;;;11.10;99.90;;;;;;5071884;28;20040;-80
2023/05/29 01:01:11;;;;;;;17.00;3.22;;;11.10;99.90;;;;;;5052854;28;20220;-81
2023/05/29 01:04:00;;;;;;;17.95;3.33;;;11.10;99.90;;;;;;5070971;28;20133;-82
2023/05/29 01:06:46;;;;;;;20.27;3.60;;;11.00;99.90;;;;;;5070795;28;20483;-81
2023/05/29 01:09:36;;;;;;;14.48;3.10;;;11.00;99.90;;;;;;5057274;28;20082;-81
2023/05/29 01:12:35;;;;;;;20.92;3.55;;;11.00;99.90;;;;;;5074436;28;20052;-81
2023/05/29 01:15:35;;;;;;;24.83;3.42;;;11.00;99.90;;;;;;5075116;28;20048;-85
2023/05/29 01:18:46;;;;;;;14.75;2.55;;;11.10;99.90;;;;;;5071509;28;20076;-82
2023/05/29 01:21:56;;;;;;;21.52;3.60;;;11.10;99.90;;;;;;5070514;28;20037;-77
2023/05/29 01:25:09;;;;;;;15.98;3.03;;;11.10;99.90;;;;;;5070481;28;20048;-82
2023/05/29 01:27:56;;;;;;;17.45;3.08;;;11.10;99.90;;;;;;5052906;28;20056;-78
2023/05/29 01:30:43;;;;;;;13.13;2.63;;;11.10;99.90;;;;;;5071164;28;20041;-80
2023/05/29 01:33:29;;;;;;;18.02;4.10;;;11.00;99.90;;;;;;5052203;28;20055;-81
2023/05/29 01:36:15;;;;;;;21.52;2.90;;;11.00;99.90;;;;;;5069775;28;20064;-84
2023/05/29 01:39:02;;;;;;;11.98;2.55;;;11.10;99.90;;;;;;5056471;28;20067;-78
2023/05/29 01:41:52;;;;;;;16.52;4.40;;;11.10;99.90;;;;;;5051977;28;20044;-82
2023/05/29 01:44:39;;;;;;;23.50;3.05;;;11.10;99.90;;;;;;5069645;28;20735;-84
2023/05/29 01:47:26;;;;;;;10.27;4.13;;;11.10;99.90;;;;;;5070685;28;20459;-82
2023/05/29 01:50:15;;;;;;;19.90;3.28;;;11.10;99.90;;;;;;5069349;28;20055;-82
2023/05/29 01:53:01;;;;;;;17.58;2.60;;;11.10;99.90;;;;;;5069428;28;20056;-84
2023/05/29 01:55:48;;;;;;;13.15;3.00;;;11.10;99.90;;;;;;5052326;28;20041;-81
2023/05/29 01:58:35;;;;;;;16.58;2.45;;;11.10;99.90;;;;;;5052439;28;20072;-80
2023/05/29 02:01:22;;;;;;;11.38;2.05;;;11.10;99.90;;;;;;5064502;28;20126;-82
2023/05/29 02:04:08;;;;;;;12.63;2.78;;;11.10;99.90;;;;;;5071335;28;20049;-82
2023/05/29 02:06:54;;;;;;;13.55;2.53;;;11.00;99.90;;;;;;5056280;28;20055;-83
2023/05/29 02:09:40;;;;;;;12.38;2.33;;;10.90;99.90;;;;;;5069758;28;20048;-81
2023/05/29 02:12:26;;;;;;;15.85;3.83;;;10.90;99.90;;;;;;5070362;28;20044;-81
2023/05/29 02:15:12;;;;;;;16.55;2.90;;;10.90;99.90;;;;;;5070062;28;20094;-83
2023/05/29 02:18:00;;;;;;;12.13;2.25;;;10.80;99.90;;;;;;5070648;28;20059;-82
2023/05/29 02:20:47;;;;;;;15.48;2.70;;;10.80;99.90;;;;;;5070440;28;20472;-83
2023/05/29 02:23:33;;;;;;;19.73;3.83;;;10.80;99.90;;;;;;5064534;28;20051;-80
2023/05/29 02:26:19;;;;;;;20.25;3.05;;;10.70;99.90;;;;;;5051569;28;20071;-85
2023/05/29 02:29:05;;;;;;;15.65;2.70;;;10.70;99.90;;;;;;5051831;28;20059;-78
2023/05/29 02:31:51;;;;;;;19.35;3.38;;;10.70;99.90;;;;;;5069284;28;20492;-85
2023/05/29 02:34:38;;;;;;;19.90;3.15;;;10.70;99.90;;;;;;5070082;28;20041;-83
2023/05/29 02:37:25;;;;;;;19.80;2.75;;;10.70;99.90;;;;;;5069983;28;20405;-83
2023/05/29 02:40:11;;;;;;;18.38;3.97;;;10.70;99.90;;;;;;5054214;28;20048;-80
2023/05/29 02:42:58;;;;;;;15.35;2.60;;;10.80;99.90;;;;;;5052531;28;20040;-85
2023/05/29 02:45:44;;;;;;;19.85;2.65;;;10.80;99.90;;;;;;5070575;28;20059;-83
2023/05/29 02:48:30;;;;;;;11.30;2.55;;;10.90;99.90;;;;;;5070689;28;20460;-84
2023/05/29 02:51:16;;;;;;;12.80;2.47;;;10.90;99.90;;;;;;5070846;28;20139;-82
2023/05/29 02:54:03;;;;;;;10.48;2.53;;;10.90;99.90;;;;;;5070661;28;20045;-82
2023/05/29 02:56:49;;;;;;;10.43;2.20;;;11.00;99.90;;;;;;5070876;28;20052;-83
2023/05/29 02:59:35;;;;;;;12.75;2.63;;;11.00;99.90;;;;;;5070879;28;20052;-80
2023/05/29 03:02:21;;;;;;;18.38;3.40;;;11.00;99.90;;;;;;5051514;28;20048;-79
2023/05/29 03:05:07;;;;;;;18.95;3.70;;;11.00;99.90;;;;;;5052253;28;20048;-83
2023/05/29 03:07:54;;;;;;;11.68;2.20;;;11.00;99.90;;;;;;5070812;28;20076;-78
2023/05/29 03:10:40;;;;;;;15.85;2.22;;;11.00;99.90;;;;;;5074052;28;20868;-83
2023/05/29 03:13:26;;;;;;;15.25;2.88;;;11.00;99.90;;;;;;5046502;28;20159;-85
2023/05/29 03:16:13;;;;;;;14.40;2.67;;;11.10;99.90;;;;;;5074196;28;20369;-87
2023/05/29 03:18:59;;;;;;;16.52;2.20;;;11.10;99.90;;;;;;5052207;28;20057;-81
2023/05/29 03:21:45;;;;;;;16.40;3.47;;;11.10;99.90;;;;;;5069875;28;20045;-85
2023/05/29 03:24:34;;;;;;;11.57;2.63;;;11.10;99.90;;;;;;5067702;28;20052;-85
2023/05/29 03:27:20;;;;;;;14.45;2.30;;;11.10;99.90;;;;;;5051349;28;20472;-84
2023/05/29 03:30:07;;;;;;;10.57;3.10;;;11.10;99.90;;;;;;5069831;28;20048;-82
2023/05/29 03:32:53;;;;;;;13.95;2.45;;;11.10;99.90;;;;;;5069679;28;20044;-78
2023/05/29 03:35:39;;;;;;;13.18;3.00;;;11.00;99.90;;;;;;5040035;28;20045;-82
2023/05/29 03:38:25;;;;;;;15.00;2.70;;;10.90;99.90;;;;;;5047123;28;20059;-75
2023/05/29 03:41:12;;;;;;;14.10;2.47;;;10.90;99.90;;;;;;5073424;28;20083;-82
2023/05/29 03:43:58;;;;;;;15.43;3.05;;;10.80;99.90;;;;;;5058926;28;20066;-81
2023/05/29 03:46:44;;;;;;;9.68;1.90;;;10.80;99.90;;;;;;5073131;28;20048;-83
2023/05/29 03:49:30;;;;;;;15.18;2.55;;;10.70;99.90;;;;;;5053743;28;20130;-83
2023/05/29 03:52:17;;;;;;;20.08;2.47;;;10.80;99.90;;;;;;5073120;28;20488;-83
2023/05/29 03:55:04;;;;;;;11.35;2.63;;;10.80;99.90;;;;;;5072802;28;20375;-86
2023/05/29 03:57:50;;;;;;;12.30;2.97;;;10.70;99.90;;;;;;5072457;28;20557;-86
2023/05/29 04:00:36;;;;;;;13.10;3.15;;;10.70;99.90;;;;;;5072709;28;20102;-83
2023/05/29 04:03:23;;;;;;;17.70;3.72;;;10.70;99.90;;;;;;5054512;28;20102;-78
2023/05/29 04:06:09;;;;;;;11.77;2.45;;;10.70;99.90;;;;;;5058519;28;20060;-82
2023/05/29 04:08:55;;;;;;;11.60;2.40;;;10.70;99.90;;;;;;5071783;28;20473;-80
2023/05/29 04:11:44;;;;;;;7.85;2.03;;;10.80;99.90;;;;;;5071626;28;20049;-82
2023/05/29 04:14:30;;;;;;;17.35;2.80;;;10.80;99.90;;;;;;5054669;28;20052;-82
2023/05/29 04:17:16;;;;;;;15.82;3.17;;;10.80;99.90;;;;;;5072167;28;20067;-82
2023/05/29 04:20:08;;;;;;;13.60;2.65;;;10.90;99.90;;;;;;5072911;28;20051;-83
2023/05/29 04:22:54;;;;;;;10.88;2.25;;;11.00;99.90;;;;;;5071922;28;20474;-82
2023/05/29 04:25:40;;;;;;;16.38;2.75;;;11.00;99.90;;;;;;5073749;28;20128;-81
2023/05/29 04:28:26;;;;;;;14.65;3.13;;;11.10;99.90;;;;;;5073349;28;20056;-82
2023/05/29 04:31:14;;;;;;;21.90;3.55;;;11.00;99.90;;;;;;5043698;28;20044;-85
2023/05/29 04:34:00;;;;;;;15.70;2.88;;;11.00;99.90;;;;;;5041108;28;20142;-77
2023/05/29 04:36:47;;;;;;;9.13;2.47;;;11.00;99.90;;;;;;5014933;28;20531;-82
2023/05/29 04:39:33;;;;;;;12.07;2.90;;;11.00;99.90;;;;;;5015686;28;20052;-86
2023/05/29 04:42:19;;;;;;;16.77;3.78;;;11.00;99.90;;;;;;5033583;28;20053;-85
2023/05/29 04:45:06;;;;;;;13.18;2.78;;;11.10;99.90;;;;;;5014826;28;20118;-83
2023/05/29 04:47:54;;;;;;;16.00;3.22;;;11.10;99.90;;;;;;5032974;28;20493;-77
2023/05/29 04:50:41;;;;;;;14.60;2.70;;;11.10;99.90;;;;;;5013469;28;20083;-78
2023/05/29 04:53:27;;;;;;;19.92;2.38;;;11.10;99.90;;;;;;5014337;28;20143;-74
2023/05/29 04:56:18;;;;;;;20.35;3.10;;;11.10;99.90;;;;;;5032057;28;20199;-76
2023/05/29 04:59:04;;;;;;;19.48;3.53;;;11.10;99.90;;;;;;5004110;28;20160;-77
2023/05/29 05:01:50;;;;;;;18.20;4.10;;;11.20;99.90;;;;;;4999860;28;20053;-81
2023/05/29 05:04:37;;;;;;;17.75;3.40;;;11.20;99.90;;;;;;5031974;28;20049;-78
2023/05/29 05:07:23;;;;;;;13.57;3.55;;;11.30;99.90;;;;;;5014074;28;20049;-79
2023/05/29 05:10:09;;;;;;;18.58;3.10;;;11.40;99.90;;;;;;5030212;28;20145;-80
2023/05/29 05:12:56;;;;;;;31.75;4.38;;;11.50;99.90;;;;;;5013593;28;20124;-82
2023/05/29 05:15:42;;;;;;;20.42;3.63;;;11.50;99.90;;;;;;5016497;28;20052;-81
2023/05/29 05:18:28;;;;;;;12.48;2.90;;;11.60;99.90;;;;;;5033799;28;20145;-81
2023/05/29 05:21:14;;;;;;;12.00;2.78;;;11.60;99.90;;;;;;5014321;28;20496;-78
2023/05/29 05:24:01;;;;;;;23.10;3.55;;;11.70;99.90;;;;;;5016844;28;20136;-79
2023/05/29 05:26:48;;;;;;;25.80;4.30;;;11.70;99.90;;;;;;5033433;28;20053;-83
2023/05/29 05:29:34;;;;;;;19.90;2.53;;;11.70;99.90;;;;;;5016828;28;20049;-82
2023/05/29 05:32:20;;;;;;;19.58;3.75;;;11.70;99.90;;;;;;5049970;28;20068;-80
2023/05/29 05:35:08;;;;;;;16.77;3.10;;;11.80;99.90;;;;;;5037623;28;20053;-81
2023/05/29 05:37:57;;;;;;;17.85;3.20;;;11.80;99.90;;;;;;5026711;28;20456;-82
2023/05/29 05:40:44;;;;;;;17.45;3.50;;;11.80;99.90;;;;;;5035534;28;20060;-81
2023/05/29 05:43:30;;;;;;;12.80;2.92;;;11.90;99.90;;;;;;5050916;28;20072;-79
2023/05/29 05:46:17;;;;;;;16.95;3.00;;;11.90;99.90;;;;;;5050982;28;20053;-76
2023/05/29 05:49:04;;;;;;;17.05;3.35;;;11.90;99.90;;;;;;5051446;28;20045;-84
2023/05/29 05:51:50;;;;;;;18.23;3.10;;;12.00;99.90;;;;;;5051447;28;20424;-84
2023/05/29 05:54:36;;;;;;;19.20;3.83;;;12.10;99.90;;;;;;5041152;28;20404;-82
2023/05/29 05:57:23;;;;;;;21.17;3.92;;;12.10;99.90;;;;;;5039736;28;20049;-76
2023/05/29 06:00:13;;;;;;;14.63;3.22;;;12.20;99.90;;;;;;5017336;28;20057;-80
2023/05/29 06:03:00;;;;;;;19.67;4.40;;;12.30;99.90;;;;;;5037375;28;20040;-80
2023/05/29 06:05:47;;;;;;;13.18;3.22;;;12.30;99.90;;;;;;5015319;28;20084;-79
2023/05/29 06:08:33;;;;;;;19.98;4.32;;;12.30;99.90;;;;;;5034094;28;20045;-81
2023/05/29 06:11:19;;;;;;;18.90;3.53;;;12.40;99.90;;;;;;5031820;28;20052;-79
2023/05/29 06:14:06;;;;;;;17.92;4.13;;;12.40;99.90;;;;;;5050607;28;20041;-84
2023/05/29 06:16:53;;;;;;;16.23;3.28;;;12.40;99.90;;;;;;5050710;28;20045;-81
2023/05/29 06:19:40;;;;;;;19.15;3.20;;;12.50;99.90;;;;;;5051067;28;20045;-80
2023/05/29 06:22:26;;;;;;;18.67;4.30;;;12.60;99.90;;;;;;5029627;28;20064;-87
2023/05/29 06:25:12;;;;;;;21.40;5.78;;;12.70;99.90;;;;;;5036399;28;20052;-81
2023/05/29 06:28:02;;;;;;;16.73;4.25;;;12.80;99.90;;;;;;5042078;28;20049;-82
2023/05/29 06:30:49;;;;;;;20.38;4.07;;;12.90;99.90;;;;;;5052328;28;20053;-82
2023/05/29 06:33:37;;;;;;;20.60;4.18;;;13.10;99.90;;;;;;5052376;28;20110;-81
2023/05/29 06:36:23;;;;;;;19.02;4.63;;;13.10;99.90;;;;;;5060407;28;20462;-81
2023/05/29 06:39:10;;;;;;;19.20;4.20;;;13.20;99.90;;;;;;5070088;28;20303;-82
2023/05/29 06:41:56;;;;;;;22.60;3.80;;;13.30;99.90;;;;;;5053205;28;20048;-82
2023/05/29 06:44:43;;;;;;;23.38;4.30;;;13.30;99.90;;;;;;5070711;28;20060;-80
2023/05/29 06:47:29;;;;;;;25.17;4.22;;;13.50;99.90;;;;;;5033587;28;20041;-80
2023/05/29 06:50:15;;;;;;;16.08;3.30;;;13.70;99.90;;;;;;5050682;28;20049;-79
2023/05/29 06:53:01;;;;;;;17.13;4.18;;;13.70;99.90;;;;;;5049186;28;20064;-79
2023/05/29 06:55:48;;;;;;;27.88;5.15;;;13.70;99.90;;;;;;5050699;28;20055;-75
2023/05/29 06:58:34;;;;;;;17.48;3.42;;;13.60;99.90;;;;;;5032662;28;20067;-77
2023/05/29 07:01:20;;;;;;;24.33;4.82;;;13.60;99.90;;;;;;5039413;28;20056;-76
2023/05/29 07:04:07;;;;;;;20.05;4.00;;;13.30;99.90;;;;;;5018417;28;20061;-74
2023/05/29 07:06:53;;;;;;;24.08;4.32;;;13.50;99.90;;;;;;5029775;28;20084;-75
2023/05/29 07:09:40;;;;;;;22.70;3.85;;;13.50;99.90;;;;;;5048714;28;20056;-75
2023/05/29 07:12:26;;;;;;;22.90;3.70;;;13.70;99.90;;;;;;5050144;28;20136;-76
2023/05/29 07:15:13;;;;;;;14.98;3.40;;;13.70;99.90;;;;;;5053079;28;20045;-77
2023/05/29 07:17:59;;;;;;;15.70;3.60;;;13.80;99.90;;;;;;5033441;28;20136;-78
2023/05/29 07:20:45;;;;;;;21.17;4.32;;;13.80;99.90;;;;;;5032473;28;20404;-74
2023/05/29 07:23:31;;;;;;;21.27;3.67;;;14.10;99.90;;;;;;5028604;28;20081;-79
2023/05/29 07:26:18;;;;;;;20.75;4.45;;;14.30;99.90;;;;;;5016407;28;20063;-75
2023/05/29 07:29:05;;;;;;;18.05;3.75;;;14.50;99.70;;;;;;5033454;28;20055;-74
2023/05/29 07:31:52;;;;;;;23.33;4.28;;;14.70;99.50;;;;;;5033904;28;20046;-80
2023/05/29 07:34:38;;;;;;;21.90;3.35;;;14.70;99.00;;;;;;5050966;28;20055;-78
2023/05/29 07:37:24;;;;;;;18.92;3.67;;;14.80;98.90;;;;;;5070757;28;20064;-79
2023/05/29 07:40:10;;;;;;;31.05;5.43;;;14.50;98.70;;;;;;5073965;28;20102;-77
2023/05/29 07:42:57;;;;;;;19.48;4.35;;;14.40;99.10;;;;;;5073111;28;20084;-75
2023/05/29 07:45:43;;;;;;;20.02;3.85;;;14.40;98.80;;;;;;5054135;28;20044;-75
2023/05/29 07:48:29;;;;;;;21.85;4.30;;;14.40;98.70;;;;;;5073834;28;20086;-75
2023/05/29 07:51:15;;;;;;;20.17;4.32;;;14.40;99.10;;;;;;5055575;28;20131;-76
2023/05/29 07:54:01;;;;;;;18.55;4.32;;;14.50;99.10;;;;;;5072339;28;20047;-82
2023/05/29 07:56:47;;;;;;;20.13;3.72;;;14.60;99.10;;;;;;5063460;28;20045;-80
2023/05/29 07:59:35;;;;;;;22.50;4.88;;;14.60;99.10;;;;;;5052061;28;20056;-74
2023/05/29 08:02:22;;;;;;;20.85;3.35;;;14.40;98.60;;;;;;5039610;28;20466;-84
2023/05/29 08:05:08;;;;;;;18.48;3.20;;;14.40;99.30;;;;;;5036887;28;20135;-84
2023/05/29 08:07:55;;;;;;;24.17;3.47;;;14.40;99.30;;;;;;5062825;28;20056;-78
2023/05/29 08:10:41;;;;;;;19.63;3.90;;;14.40;99.10;;;;;;5072068;28;20056;-83
2023/05/29 08:13:29;;;;;;;18.55;3.80;;;14.40;99.30;;;;;;5055794;28;20048;-79
2023/05/29 08:16:16;;;;;;;25.42;4.25;;;14.50;99.40;;;;;;5054430;28;20063;-79
2023/05/29 08:19:03;;;;;;;23.58;3.88;;;14.60;99.30;;;;;;5057594;28;20052;-81
2023/05/29 08:21:49;;;;;;;22.38;3.55;;;14.60;99.10;;;;;;5058791;28;20045;-80
2023/05/29 08:24:35;;;;;;;23.40;3.35;;;14.80;99.00;;;;;;5072084;28;20048;-79
2023/05/29 08:27:22;;;;;;;18.08;3.65;;;15.00;98.80;;;;;;5051080;28;20053;-81
2023/05/29 08:30:08;;;;;;;14.63;3.47;;;15.10;98.50;;;;;;5059476;28;20395;-78
2023/05/29 08:32:55;;;;;;;11.65;3.33;;;15.30;97.80;;;;;;5059023;28;20128;-78
2023/05/29 08:35:41;;;;;;;22.35;4.63;;;15.10;97.60;;;;;;5051596;28;20088;-82
2023/05/29 08:38:27;;;;;;;17.48;3.17;;;15.20;97.90;;;;;;5042549;28;20132;-83
2023/05/29 08:41:22;;;;;;;16.08;3.90;;;15.30;98.00;;;;;;5036319;28;20049;-77
2023/05/29 08:44:12;;;;;;;21.48;3.88;;;15.40;98.20;;;;;;5051227;28;20412;-85
2023/05/29 08:47:05;;;;;;;13.68;3.00;;;15.40;98.10;;;;;;5051782;28;20135;-77
2023/05/29 08:49:53;;;;;;;17.98;3.70;;;15.40;97.90;;;;;;5051403;28;20144;-78
2023/05/29 08:52:40;;;;;;;24.92;4.20;;;15.50;97.80;;;;;;5050847;28;20060;-75
2023/05/29 08:55:27;;;;;;;22.95;4.43;;;15.50;97.90;;;;;;5051142;28;20040;-76
2023/05/29 08:58:14;;;;;;;16.55;3.85;;;15.60;97.80;;;;;;5050608;28;20052;-76
2023/05/29 09:01:01;;;;;;;23.63;4.47;;;15.60;97.50;;;;;;5051811;28;20072;-76
2023/05/29 09:03:48;;;;;;;17.40;4.25;;;15.60;97.30;;;;;;5052239;28;20041;-82
2023/05/29 09:06:34;;;;;;;15.32;3.30;;;15.70;97.20;;;;;;5044722;28;20076;-79
2023/05/29 09:09:20;;;;;;;17.02;3.55;;;15.60;97.00;;;;;;5033192;28;20143;-77
2023/05/29 09:12:07;;;;;;;17.45;3.42;;;15.90;97.30;;;;;;5050899;28;20053;-79
2023/05/29 09:14:54;;;;;;;21.38;4.20;;;16.10;97.10;;;;;;5051504;28;20049;-77
2023/05/29 09:17:40;;;;;;;20.52;4.35;;;16.10;96.90;;;;;;5037973;28;20496;-80
2023/05/29 09:20:27;;;;;;;18.58;4.30;;;16.20;97.00;;;;;;5051823;28;20048;-75
2023/05/29 09:23:13;;;;;;;20.48;4.55;;;16.20;96.90;;;;;;5050962;28;20041;-77
2023/05/29 09:26:02;;;;;;;18.38;3.50;;;16.30;96.80;;;;;;5052266;28;20049;-80
2023/05/29 09:28:49;;;;;;;17.15;4.10;;;16.50;96.80;;;;;;5050411;28;20045;-79
2023/05/29 09:31:46;;;;;;;18.73;4.43;;;16.60;96.40;;;;;;5050871;28;20052;-77
2023/05/29 09:34:32;;;;;;;23.30;4.32;;;16.60;96.10;;;;;;5032850;28;20477;-79
2023/05/29 09:37:22;;;;;;;20.80;3.80;;;16.70;95.80;;;;;;5052548;28;20424;-80
2023/05/29 09:40:11;;;;;;;18.92;3.80;;;16.70;95.60;;;;;;5054499;28;20155;-81
2023/05/29 09:43:20;;;;;;;26.65;3.90;;;16.80;95.60;;;;;;5033704;28;20657;-82
2023/05/29 09:46:06;;;;;;;20.50;4.35;;;16.90;95.50;;;;;;5050221;28;20045;-80
2023/05/29 09:48:52;;;;;;;19.85;2.88;;;17.00;95.30;;;;;;5050939;28;20053;-76
2023/05/29 09:51:39;;;;;;;15.23;4.03;;;17.30;95.00;;;;;;5036132;28;20037;-75
2023/05/29 09:54:30;;;;;;;13.25;3.25;;;17.40;94.80;;;;;;5050342;28;20076;-78
2023/05/29 09:57:17;;;;;;;22.52;2.97;;;17.40;94.50;;;;;;5050136;28;20530;-81
2023/05/29 10:00:12;;;;;;;16.42;2.78;;;17.60;94.60;;;;;;5050297;28;20135;-80
2023/05/29 10:02:59;;;;;;;20.35;3.47;;;17.70;94.50;;;;;;5019593;28;20053;-78
2023/05/29 10:05:50;;;;;;;20.42;3.22;;;17.70;94.30;;;;;;5044788;28;20420;-78
2023/05/29 10:08:41;;;;;;;17.50;3.60;;;17.90;94.30;;;;;;5069835;28;20048;-81
2023/05/29 10:11:28;;;;;;;18.60;4.43;;;18.10;94.10;;;;;;5071185;28;20110;-79
2023/05/29 10:14:22;;;;;;;20.17;4.20;;;18.00;93.70;;;;;;5070824;28;20763;-78
2023/05/29 10:17:11;;;;;;;20.42;3.28;;;18.20;93.60;;;;;;5056230;28;20044;-78
2023/05/29 10:19:59;;;;;;;16.85;3.20;;;18.00;93.20;;;;;;5063488;28;20117;-78
2023/05/29 10:22:48;;;;;;;20.23;3.92;;;18.00;92.80;;;;;;5055467;28;20037;-76
2023/05/29 10:25:36;;;;;;;18.13;3.53;;;18.30;93.10;;;;;;5035861;28;20045;-79
2023/05/29 10:28:26;;;;;;;13.55;4.15;;;18.50;93.00;;;;;;5037448;28;20663;-77
2023/05/29 10:31:59;;;;;;;19.30;3.72;;;18.80;93.00;;;;;;5048877;28;20114;-78
2023/05/29 10:35:07;;;;;;;24.67;4.35;;;18.70;92.20;;;;;;5034096;28;20490;-75
2023/05/29 10:38:15;;;;;;;17.45;3.20;;;18.80;92.40;;;;;;5050054;28;20055;-76
2023/05/29 10:41:26;;;;;;;15.95;3.08;;;18.60;91.10;;;;;;5033991;28;20194;-76
2023/05/29 10:44:30;;;;;;;21.38;4.63;;;18.70;91.30;;;;;;5040709;28;20102;-78
2023/05/29 10:47:23;;;;;;;18.70;3.78;;;18.60;92.00;;;;;;5047565;28;20052;-78
2023/05/29 10:50:09;;;;;;;16.55;3.50;;;18.80;92.00;;;;;;5048297;28;20094;-75
2023/05/29 10:52:56;;;;;;;22.25;3.22;;;18.80;92.10;;;;;;5033248;28;20405;-78
2023/05/29 10:55:42;;;;;;;16.35;3.75;;;19.10;92.00;;;;;;5049243;28;20396;-76
2023/05/29 10:58:30;;;;;;;12.10;2.50;;;19.30;91.80;;;;;;5047976;28;20049;-78
2023/05/29 11:01:16;;;;;;;18.13;4.03;;;19.50;90.60;;;;;;5030201;28;20053;-79
2023/05/29 11:04:15;;;;;;;21.30;3.47;;;19.70;90.60;;;;;;5047877;28;20053;-79
2023/05/29 11:07:05;;;;;;;17.25;3.38;;;19.70;89.00;;;;;;5041393;28;20076;-76
2023/05/29 11:09:51;;;;;;;17.88;3.03;;;19.70;90.10;;;;;;5050054;28;20131;-80
2023/05/29 11:12:56;;;;;;;14.68;3.17;;;19.80;89.90;;;;;;5054585;28;20058;-79
2023/05/29 11:15:43;;;;;;;24.92;4.13;;;19.50;89.50;;;;;;5050495;28;20511;-81
2023/05/29 11:18:29;;;;;;;18.20;3.40;;;19.50;89.60;;;;;;5051116;28;20052;-80
2023/05/29 11:21:34;;;;;;;18.63;3.42;;;19.50;88.90;;;;;;5049087;28;20045;-81
2023/05/29 11:24:29;;;;;;;9.23;2.58;;;19.50;89.20;;;;;;5039214;28;20048;-80
2023/05/29 11:27:15;;;;;;;19.98;3.97;;;19.40;89.60;;;;;;5053109;28;20044;-78
2023/05/29 11:30:01;;;;;;;12.43;3.25;;;19.50;89.50;;;;;;5058201;28;20052;-92
2023/05/29 11:32:48;;;;;;;15.20;3.00;;;19.80;88.50;;;;;;5057340;28;20439;-77
2023/05/29 11:35:37;;;;;;;12.35;2.78;;;19.80;88.50;;;;;;5067786;28;20075;-79
2023/05/29 11:38:28;;;;;;;13.77;3.03;;;20.00;87.10;;;;;;5051920;28;20068;-77
2023/05/29 11:41:16;;;;;;;15.52;3.67;;;20.10;86.90;;;;;;5068376;28;20455;-78
2023/05/29 11:44:05;;;;;;;12.77;3.60;;;20.40;87.50;;;;;;5069146;28;20053;-77
2023/05/29 11:47:05;;;;;;;16.30;3.20;;;20.80;87.30;;;;;;5050442;28;20060;-77
2023/05/29 11:49:51;;;;;;;15.75;2.78;;;21.00;85.50;;;;;;5054267;28;20639;-82
2023/05/29 11:52:46;;;;;;;13.52;2.95;;;20.90;85.40;;;;;;5069116;28;20049;-80
2023/05/29 11:55:32;;;;;;;15.55;3.40;;;20.70;84.00;;;;;;5038709;28;20055;-78
2023/05/29 11:58:20;;;;;;;11.77;3.03;;;20.80;85.00;;;;;;5070320;28;20053;-76
2023/05/29 12:01:10;;;;;;;13.80;3.67;;;21.20;86.20;;;;;;5076433;28;20048;-80
2023/05/29 12:03:56;;;;;;;20.45;3.78;;;21.40;83.90;;;;;;5055078;28;20048;-76
2023/05/29 12:06:44;;;;;;;14.70;3.53;;;21.80;83.40;;;;;;5073160;28;20045;-80
2023/05/29 12:09:30;;;;;;;14.27;2.83;;;21.90;82.20;;;;;;5053379;28;20102;-81
2023/05/29 12:12:17;;;;;;;13.00;2.85;;;21.70;82.20;;;;;;5052374;28;20094;-81
2023/05/29 12:15:06;;;;;;;12.30;3.72;;;22.10;82.00;;;;;;5053346;28;20048;-76
2023/05/29 12:17:54;;;;;;;15.00;3.47;;;21.90;80.90;;;;;;5036272;28;20053;-79
2023/05/29 12:20:40;;;;;;;17.15;3.03;;;22.20;81.40;;;;;;5062154;28;20377;-77
2023/05/29 12:23:27;;;;;;;16.73;3.08;;;22.60;80.30;;;;;;5064667;28;20048;-81
2023/05/29 12:26:15;;;;;;;19.33;3.17;;;22.50;78.30;;;;;;5048223;28;20045;-77
2023/05/29 12:29:07;;;;;;;10.93;3.15;;;22.30;78.30;;;;;;5063143;28;20118;-77
2023/05/29 12:31:59;;;;;;;13.95;3.33;;;22.10;79.20;;;;;;5064327;28;20056;-78
2023/05/29 12:34:49;;;;;;;11.60;2.72;;;22.50;78.50;;;;;;5063168;28;20399;-81
2023/05/29 12:37:35;;;;;;;16.45;2.95;;;22.50;78.80;;;;;;5064064;28;20048;-79
2023/05/29 12:40:23;;;;;;;12.88;2.97;;;22.90;76.90;;;;;;5059116;28;20060;-87
2023/05/29 12:43:09;;;;;;;12.80;3.20;;;22.80;75.70;;;;;;5054952;28;20052;-79
2023/05/29 12:45:58;;;;;;;16.63;3.13;;;23.00;75.00;;;;;;5054006;28;20135;-78
2023/05/29 12:48:44;;;;;;;11.85;2.50;;;23.00;75.40;;;;;;5071525;28;20564;-78
2023/05/29 12:51:31;;;;;;;11.43;2.85;;;22.90;75.10;;;;;;5071303;28;20095;-76
2023/05/29 12:54:17;;;;;;;17.20;3.03;;;22.30;74.10;;;;;;5070666;28;20675;-80
2023/05/29 12:57:03;;;;;;;17.83;2.75;;;22.20;74.90;;;;;;5054619;28;20048;-77
2023/05/29 12:59:50;;;;;;;13.25;2.92;;;22.40;74.90;;;;;;5071665;28;20113;-78
2023/05/29 13:02:36;;;;;;;13.02;2.72;;;22.20;74.40;;;;;;5071367;28;20051;-78
2023/05/29 13:05:22;;;;;;;13.05;4.03;;;22.30;75.60;;;;;;5071748;28;20058;-77
2023/05/29 13:08:09;;;;;;;16.65;2.75;;;22.30;74.40;;;;;;5061823;28;20052;-79
2023/05/29 13:10:55;;;;;;;13.23;2.75;;;22.40;74.00;;;;;;5043660;28;20452;-80
2023/05/29 13:13:41;;;;;;;9.40;2.50;;;23.00;74.70;;;;;;5073396;28;20051;-81
2023/05/29 13:16:27;;;;;;;12.30;3.17;;;23.20;73.70;;;;;;5071746;28;20048;-81
2023/05/29 13:19:13;;;;;;;15.88;3.38;;;23.50;72.30;;;;;;5063169;28;20136;-77
2023/05/29 13:22:00;;;;;;;11.93;2.33;;;23.80;71.00;;;;;;5053558;28;20063;-78
2023/05/29 13:24:46;;;;;;;11.60;2.85;;;24.20;70.10;;;;;;5071552;28;20055;-79
2023/05/29 13:27:34;;;;;;;11.52;2.55;;;23.80;68.50;;;;;;5071809;28;20146;-79
2023/05/29 13:30:22;;;;;;;17.23;2.40;;;23.70;68.70;;;;;;5071053;28;20056;-80
2023/05/29 13:33:08;;;;;;;11.23;2.53;;;24.40;69.20;;;;;;5074125;28;20044;-80
2023/05/29 13:35:54;;;;;;;15.18;3.00;;;24.60;67.30;;;;;;5065441;28;20056;-80
2023/05/29 13:38:40;;;;;;;11.52;2.33;;;24.70;66.30;;;;;;5051885;28;20045;-80
2023/05/29 13:41:26;;;;;;;15.57;3.25;;;24.40;66.50;;;;;;5052131;28;20049;-78
2023/05/29 13:44:12;;;;;;;11.35;3.03;;;24.50;65.00;;;;;;5041222;28;20053;-77
2023/05/29 13:46:58;;;;;;;13.13;2.67;;;24.40;65.50;;;;;;5031081;28;20041;-79
2023/05/29 13:49:44;;;;;;;11.32;2.40;;;24.90;64.00;;;;;;5032138;28;20053;-79
2023/05/29 13:52:30;;;;;;;12.20;2.38;;;25.20;64.40;;;;;;5031916;28;20045;-79
2023/05/29 13:55:16;;;;;;;13.63;2.97;;;25.00;62.70;;;;;;5047770;28;20117;-78
2023/05/29 13:58:02;;;;;;;19.67;3.30;;;25.10;61.80;;;;;;5053656;28;20132;-78
2023/05/29 14:00:48;;;;;;;12.95;2.53;;;25.20;63.10;;;;;;5050197;28;20045;-79
2023/05/29 14:03:35;;;;;;;12.88;2.88;;;25.40;62.90;;;;;;5051622;28;20463;-80
2023/05/29 14:06:21;;;;;;;17.02;3.08;;;25.10;62.80;;;;;;5050667;28;20063;-77
2023/05/29 14:09:11;;;;;;;11.43;2.85;;;24.90;63.00;;;;;;5043200;28;20045;-80
2023/05/29 14:12:02;;;;;;;12.90;2.33;;;25.40;63.40;;;;;;5017315;28;20143;-78
2023/05/29 14:14:48;;;;;;;13.25;2.90;;;26.20;62.20;;;;;;5030532;28;20103;-78
2023/05/29 14:17:34;;;;;;;10.02;2.63;;;26.40;60.70;;;;;;5030320;28;20073;-75
2023/05/29 14:20:20;;;;;;;13.30;2.95;;;26.60;60.00;;;;;;5015970;28;20104;-79
2023/05/29 14:23:09;;;;;;;11.70;2.50;;;26.60;59.70;;;;;;5033371;28;20072;-75